BGKKBGGH

Guest
Details From BGKK - Kulusuk
To BGGH - Nuuk
Flight Number -
Tags Generated
Created
Modified
Stats Distance 383 nm / 709 km
Max Altitude 0 ft / 0 m
Waypoints 3
Social Downloads 3
Likes 0
Share VATSIM

Download

Looking for another format? Having issues loading an existing format? Contact us
Advertisement - Login to hide

Notes

Generated

Route

BGKK GH BGGH

ID Type Via Altitude Latitude Longitude Leg Dist Tot Dist Heading (true) Name
O BGKK APT - 0 ft / 0 m 65.57304˚ -37.13664˚ - 0 nm - -
GH NDB - 0 ft / 0 m 64.17963˚ -51.74961˚ 380 nm 380 nm 264° / 251° GODTHAB/NUUK NDB
O BGGH APT - 0 ft / 0 m 64.18897˚ -51.67955˚ 1 nm 382 nm 73° / 73° Nuuk

Altitude Profile

Advertisement - Login to hide

Weather


0- 5 10 15 20 25 30 35+ Temperature / ° C

Clouds and Precipitation
Forecast for 2017-12-12 18:00 UTC. Updated an hour ago

Ground ~20,000 ft ~40,000 ft Winds

BGKK

Details ICAO BGKK
Name Kulusuk
Region Greenland
Timezone America/Godthab (UTC-3.0)
Stats Elevation 114 ft / 35 m (AMSL)
Location 65.573608° -37.123608°
Runways 1
Magnetic Variation 22.320° W

METAR

BGKK 121550Z 04016G26KT 010V080 8000 -SHSN BKN040 00/M07 Q0977

Decode

TAF

Not found

Departure Runways

ID Width Length Bearing (true) Bearing (mag) Surface Threshold Offset Overrun Length
11 98 ft / 30 m 3,956 ft / 1,206 m 83.99° 106.31° Gravel 0 ft / 0 m 0 ft / 0 m
29 98 ft / 30 m 3,956 ft / 1,206 m 264.01° 286.33° Gravel 0 ft / 0 m 0 ft / 0 m

BGGH

Details ICAO BGGH (GOH)
Name Nuuk
Region Greenland
Timezone America/Godthab (UTC-3.0)
Stats Elevation 283 ft / 86 m (AMSL)
Location 64.193021° -51.676454°
Runways 1
Magnetic Variation 27.021° W

METAR

BGGH 121550Z 30013KT 1500 SN DRSN SCT003 BKN007 OVC014 M03/M04 Q0985

Decode

TAF

Not found

Destination Runways

ID Width Length Bearing (true) Bearing (mag) Surface Threshold Offset Overrun Length
05 98 ft / 30 m 3,113 ft / 949 m 18.44° 45.46° Asphalt 0 ft / 0 m 0 ft / 0 m
23 98 ft / 30 m 3,113 ft / 949 m 198.44° 225.46° Asphalt 0 ft / 0 m 0 ft / 0 m

Popular Alternatives